Time;durP1;ratioP1;P1;durP2;ratioP2;P2;SDS_P1;SDS_P2;PMS_P1;PMS_P2;Temp;Humidity;BMP_temperature;BMP_pressure;BME280_temperature;BME280_humidity;BME280_pressure;Samples;Min_cycle;Max_cycle;Signal;HPM_P1;HPM_P2
2021/01/11 00:01:40;;;;;;;14.27;10.23;;;;;;;3.47;100.00;101362.25;5038013;28;20457;-74
2021/01/11 00:04:26;;;;;;;16.25;10.90;;;;;;;3.53;100.00;101354.59;5037967;28;20026;-72
2021/01/11 00:07:13;;;;;;;17.17;10.15;;;;;;;3.12;100.00;101352.81;5038472;28;20022;-73
2021/01/11 00:09:59;;;;;;;16.85;11.10;;;;;;;3.46;100.00;101345.81;5037222;28;20029;-73
2021/01/11 00:12:45;;;;;;;13.30;9.13;;;;;;;3.49;100.00;101345.88;5037181;28;20025;-73
2021/01/11 00:15:31;;;;;;;13.45;8.43;;;;;;;3.37;100.00;101350.81;5036679;28;20036;-73
2021/01/11 00:18:16;;;;;;;13.18;8.77;;;;;;;3.59;100.00;101331.41;5037312;28;20040;-73
2021/01/11 00:21:02;;;;;;;10.70;7.82;;;;;;;3.36;100.00;101330.94;5037326;28;20450;-74
2021/01/11 00:23:48;;;;;;;11.65;8.30;;;;;;;3.54;100.00;101327.84;5036599;28;20071;-73
2021/01/11 00:26:33;;;;;;;13.45;8.43;;;;;;;3.58;100.00;101321.91;5023540;28;20355;-73
2021/01/11 00:29:20;;;;;;;12.25;8.23;;;;;;;3.49;100.00;101303.56;5037800;28;20022;-73
2021/01/11 00:32:06;;;;;;;14.70;9.23;;;;;;;3.27;100.00;101284.16;5036740;28;20072;-73
2021/01/11 00:34:51;;;;;;;17.02;9.98;;;;;;;3.50;100.00;101275.09;5042031;28;20045;-73
2021/01/11 00:37:38;;;;;;;16.88;10.43;;;;;;;3.33;100.00;101252.28;5056594;28;20064;-72
2021/01/11 00:40:23;;;;;;;17.02;11.25;;;;;;;3.51;100.00;101245.78;5043815;28;20036;-73
2021/01/11 00:43:09;;;;;;;14.00;9.95;;;;;;;3.37;100.00;101228.22;5056271;28;20112;-73
2021/01/11 00:45:55;;;;;;;14.02;9.18;;;;;;;3.23;100.00;101235.72;5056192;28;20112;-73
2021/01/11 00:48:41;;;;;;;12.65;9.05;;;;;;;3.19;100.00;101240.81;5056279;28;20035;-73
2021/01/11 00:51:26;;;;;;;13.43;8.25;;;;;;;3.21;100.00;101215.81;5056339;28;20033;-73
2021/01/11 00:54:12;;;;;;;13.23;8.70;;;;;;;3.53;100.00;101214.69;5056687;28;20063;-73
2021/01/11 00:56:58;;;;;;;11.77;8.05;;;;;;;3.33;100.00;101222.09;5055383;28;20037;-74
2021/01/11 00:59:44;;;;;;;11.85;8.38;;;;;;;3.21;100.00;101226.16;5056885;28;20059;-74
2021/01/11 01:02:29;;;;;;;11.43;7.90;;;;;;;3.39;100.00;101224.84;5055894;28;20086;-74
2021/01/11 01:05:15;;;;;;;11.57;8.18;;;;;;;3.30;100.00;101234.97;5056028;28;20048;-73
2021/01/11 01:08:01;;;;;;;10.40;7.47;;;;;;;3.24;100.00;101252.13;5056016;28;20053;-73
2021/01/11 01:10:47;;;;;;;10.80;8.00;;;;;;;3.44;100.00;101243.03;5041594;28;20031;-73
2021/01/11 01:13:32;;;;;;;9.95;7.40;;;;;;;3.19;100.00;101233.03;5055443;28;20032;-73
2021/01/11 01:16:36;;;;;;;13.55;8.50;;;;;;;3.08;100.00;101234.53;5056673;28;20394;-73
2021/01/11 01:19:22;;;;;;;11.43;8.15;;;;;;;3.18;100.00;101219.22;5055233;28;20021;-73
2021/01/11 01:22:08;;;;;;;14.70;9.45;;;;;;;3.35;100.00;101209.19;5041190;28;20040;-75
2021/01/11 01:24:53;;;;;;;14.02;10.02;;;;;;;3.14;100.00;101188.06;5055483;28;20091;-75
2021/01/11 01:27:39;;;;;;;12.45;8.35;;;;;;;3.14;100.00;101168.22;5057151;28;20052;-77
2021/01/11 01:30:25;;;;;;;12.65;9.23;;;;;;;3.23;100.00;101155.47;5055232;28;20447;-75
2021/01/11 01:33:11;;;;;;;12.98;9.32;;;;;;;3.00;100.00;101161.91;5055311;28;20021;-75
2021/01/11 01:35:57;;;;;;;14.35;8.45;;;;;;;2.96;100.00;101151.47;5055099;28;20044;-76
2021/01/11 01:38:42;;;;;;;12.88;9.00;;;;;;;2.74;100.00;101157.06;5054836;28;20108;-75
2021/01/11 01:41:28;;;;;;;13.43;8.93;;;;;;;2.94;100.00;101166.94;5056028;28;20116;-76
2021/01/11 01:44:14;;;;;;;13.35;8.85;;;;;;;2.70;100.00;101161.28;5055358;28;20028;-74
2021/01/11 01:47:00;;;;;;;14.55;9.23;;;;;;;2.80;100.00;101139.06;5055798;28;20024;-73
2021/01/11 01:49:46;;;;;;;12.55;8.60;;;;;;;2.77;100.00;101137.28;5055201;28;20344;-73
2021/01/11 01:52:34;;;;;;;13.45;8.43;;;;;;;2.88;100.00;101147.84;5055632;28;20032;-76
2021/01/11 01:55:20;;;;;;;11.93;8.05;;;;;;;2.79;100.00;101151.13;5054426;28;20147;-73
2021/01/11 01:58:09;;;;;;;13.65;8.48;;;;;;;2.65;100.00;101118.06;5054190;28;20099;-73
2021/01/11 02:00:55;;;;;;;12.15;8.45;;;;;;;2.84;100.00;101130.50;5054835;28;20029;-73
2021/01/11 02:03:40;;;;;;;13.35;9.27;;;;;;;2.73;100.00;101143.22;5055033;28;20021;-73
2021/01/11 02:06:31;;;;;;;13.27;9.23;;;;;;;2.70;100.00;101158.69;5054846;28;20050;-73
2021/01/11 02:09:33;;;;;;;15.75;9.00;;;;;;;2.76;100.00;101186.41;5040309;28;20016;-73
2021/01/11 02:12:24;;;;;;;11.77;7.85;;;;;;;2.74;100.00;101217.41;5054503;28;20032;-73
2021/01/11 02:15:18;;;;;;;14.60;8.82;;;;;;;2.57;100.00;101244.63;5054030;28;20528;-73
2021/01/11 02:18:09;;;;;;;14.63;8.27;;;;;;;2.56;100.00;101281.66;5054562;28;20043;-73
2021/01/11 02:21:18;;;;;;;13.73;7.85;;;;;;;2.62;100.00;101292.16;5039794;28;20021;-73
2021/01/11 02:24:18;;;;;;;13.00;7.10;;;;;;;2.55;100.00;101277.34;5054420;28;20055;-74
2021/01/11 02:27:26;;;;;;;14.57;8.60;;;;;;;2.99;100.00;101250.75;5053833;28;20095;-73
2021/01/11 02:30:12;;;;;;;16.30;8.50;;;;;;;2.89;100.00;101191.88;5040031;28;20442;-74
2021/01/11 02:33:15;;;;;;;14.85;9.48;;;;;;;3.12;100.00;101194.91;5053583;28;20025;-74
2021/01/11 02:36:09;;;;;;;14.52;8.48;;;;;;;2.82;100.00;101174.47;5054720;28;20096;-73
2021/01/11 02:38:55;;;;;;;14.65;8.45;;;;;;;2.90;100.00;101162.56;5054922;28;20108;-73
2021/01/11 02:41:40;;;;;;;14.75;9.70;;;;;;;2.92;100.00;101142.78;5054605;28;20455;-73
2021/01/11 02:44:26;;;;;;;17.40;11.25;;;;;;;2.85;100.00;101156.41;5053982;28;20029;-73
2021/01/11 02:47:13;;;;;;;15.20;10.75;;;;;;;2.94;100.00;101181.63;5054889;28;20071;-73
2021/01/11 02:50:01;;;;;;;14.98;10.23;;;;;;;2.62;100.00;101169.72;5054787;28;20029;-74
2021/01/11 02:53:03;;;;;;;12.77;9.52;;;;;;;2.89;100.00;101165.13;5054410;28;20017;-74
2021/01/11 02:55:55;;;;;;;13.57;8.20;;;;;;;2.71;100.00;101182.84;5053743;28;20025;-74
2021/01/11 02:58:40;;;;;;;12.43;7.13;;;;;;;2.58;100.00;101186.88;5040328;28;20025;-74
2021/01/11 03:01:33;;;;;;;10.38;7.00;;;;;;;2.49;100.00;101238.41;5053316;28;20037;-74
2021/01/11 03:04:22;;;;;;;11.77;7.53;;;;;;;2.86;100.00;101242.69;5054110;28;20037;-73
2021/01/11 03:07:09;;;;;;;11.13;6.68;;;;;;;2.62;100.00;101200.75;5040354;28;20029;-73
2021/01/11 03:09:55;;;;;;;14.93;8.25;;;;;;;2.88;100.00;101187.53;5040481;28;20363;-74
2021/01/11 03:12:40;;;;;;;24.33;9.82;;;;;;;2.81;100.00;101206.34;5054797;28;20414;-75
2021/01/11 03:15:26;;;;;;;14.30;9.25;;;;;;;2.71;100.00;101232.00;5053876;28;20039;-75
2021/01/11 03:18:12;;;;;;;16.30;9.27;;;;;;;2.31;100.00;101242.25;5054651;28;20029;-76
2021/01/11 03:20:58;;;;;;;12.40;7.80;;;;;;;2.26;100.00;101229.25;5053314;28;20029;-74
2021/01/11 03:23:43;;;;;;;12.32;8.43;;;;;;;2.47;100.00;101206.47;5054013;28;20436;-74
2021/01/11 03:26:29;;;;;;;10.27;7.57;;;;;;;2.43;100.00;101190.84;5039493;28;20025;-76
2021/01/11 03:29:16;;;;;;;11.90;7.35;;;;;;;2.34;100.00;101212.22;5054085;28;20029;-74
2021/01/11 03:32:03;;;;;;;10.02;6.68;;;;;;;2.19;100.00;101236.81;5053626;28;20021;-75
2021/01/11 03:34:49;;;;;;;8.15;5.65;;;;;;;2.19;100.00;101266.13;5053865;28;20394;-76
2021/01/11 03:37:35;;;;;;;8.98;6.15;;;;;;;2.41;100.00;101281.28;5053665;28;20025;-76
2021/01/11 03:40:21;;;;;;;7.63;4.75;;;;;;;2.26;100.00;101280.06;5039617;28;20052;-75
2021/01/11 03:43:07;;;;;;;7.82;5.20;;;;;;;2.40;100.00;101266.63;5053059;28;20035;-74
2021/01/11 03:45:52;;;;;;;6.47;4.20;;;;;;;2.26;100.00;101244.75;5054442;28;20362;-74
2021/01/11 03:48:38;;;;;;;11.82;5.95;;;;;;;2.26;100.00;101207.69;5054472;28;20025;-75
2021/01/11 03:51:25;;;;;;;4.57;3.83;;;;;;;2.29;100.00;101205.19;5054047;28;20032;-75
2021/01/11 03:54:10;;;;;;;5.72;4.18;;;;;;;1.99;100.00;101209.59;5053808;28;20052;-74
2021/01/11 03:56:56;;;;;;;5.75;3.80;;;;;;;1.87;100.00;101238.59;5053164;28;20094;-76
2021/01/11 03:59:42;;;;;;;7.75;4.35;;;;;;;2.08;100.00;101264.09;5053533;28;20445;-76
2021/01/11 04:02:28;;;;;;;6.78;4.65;;;;;;;2.08;100.00;101271.84;5052818;28;20105;-76
2021/01/11 04:05:13;;;;;;;5.85;4.20;;;;;;;2.09;100.00;101289.97;5054216;28;20106;-76
2021/01/11 04:07:59;;;;;;;7.13;4.95;;;;;;;1.86;100.00;101300.56;5053691;28;20033;-77
2021/01/11 04:10:45;;;;;;;7.03;4.85;;;;;;;1.93;100.00;101305.91;5040312;28;20037;-76
2021/01/11 04:13:31;;;;;;;5.70;4.25;;;;;;;1.94;100.00;101306.78;5052658;28;20490;-76
2021/01/11 04:16:17;;;;;;;6.30;4.97;;;;;;;2.05;100.00;101318.28;5052998;28;20033;-75
2021/01/11 04:19:02;;;;;;;5.97;4.93;;;;;;;1.99;100.00;101326.75;5038166;28;20044;-75
2021/01/11 04:21:48;;;;;;;7.63;5.25;;;;;;;1.85;100.00;101334.97;5055578;28;20406;-75
2021/01/11 04:24:34;;;;;;;8.85;4.97;;;;;;;2.09;100.00;101333.91;5057901;28;20107;-76
2021/01/11 04:27:20;;;;;;;6.50;4.80;;;;;;;2.10;100.00;101322.75;5043024;28;20036;-77
2021/01/11 04:30:07;;;;;;;7.38;5.32;;;;;;;2.10;100.00;101320.16;5056892;28;20082;-76
2021/01/11 04:32:56;;;;;;;7.88;5.45;;;;;;;2.02;100.00;101285.50;5056038;28;20040;-77
2021/01/11 04:35:42;;;;;;;8.38;5.75;;;;;;;2.16;100.00;101278.97;5049384;28;20059;-76
2021/01/11 04:38:28;;;;;;;8.23;5.85;;;;;;;2.11;100.00;101257.31;5056586;28;20049;-76
2021/01/11 04:41:14;;;;;;;10.35;6.93;;;;;;;1.92;100.00;101234.41;5056255;28;20348;-76
2021/01/11 04:44:02;;;;;;;14.35;7.63;;;;;;;2.10;100.00;101228.84;5055788;28;20032;-75
2021/01/11 04:46:49;;;;;;;15.45;7.70;;;;;;;1.93;100.00;101194.81;5056392;28;20086;-77
2021/01/11 04:49:36;;;;;;;10.63;7.20;;;;;;;2.02;100.00;101171.81;5056570;28;20029;-77
2021/01/11 04:52:24;;;;;;;9.02;5.97;;;;;;;2.01;100.00;101159.69;5056155;28;20096;-76
2021/01/11 04:55:12;;;;;;;11.38;6.80;;;;;;;2.20;100.00;101163.59;5055579;28;20029;-76
2021/01/11 04:57:58;;;;;;;8.98;6.32;;;;;;;1.95;100.00;101169.03;5057291;28;20355;-76
2021/01/11 05:00:43;;;;;;;16.08;8.23;;;;;;;1.99;100.00;101163.97;5056957;28;20094;-75
2021/01/11 05:03:30;;;;;;;11.52;8.02;;;;;;;2.20;100.00;101176.50;5068267;28;20025;-77
2021/01/11 05:06:18;;;;;;;12.43;8.60;;;;;;;1.90;100.00;101191.28;5068236;28;20032;-75
2021/01/11 05:09:05;;;;;;;11.82;8.70;;;;;;;2.13;100.00;101209.09;5067457;28;20044;-76
2021/01/11 05:11:51;;;;;;;14.57;10.27;;;;;;;2.01;100.00;101197.59;5067425;28;20029;-75
2021/01/11 05:14:37;;;;;;;19.85;11.73;;;;;;;2.10;100.00;101197.81;5059389;28;20083;-77
2021/01/11 05:17:23;;;;;;;16.13;10.93;;;;;;;1.99;100.00;101205.31;5056070;28;20021;-76
2021/01/11 05:20:10;;;;;;;11.57;8.10;;;;;;;1.84;100.00;101214.41;5055701;28;20025;-75
2021/01/11 05:22:58;;;;;;;11.43;7.88;;;;;;;1.77;100.00;101215.94;5055909;28;20044;-77
2021/01/11 05:25:45;;;;;;;18.98;10.68;;;;;;;1.78;100.00;101225.47;5055758;28;20036;-75
2021/01/11 05:28:32;;;;;;;25.55;12.77;;;;;;;2.00;100.00;101229.41;5056777;28;20029;-76
2021/01/11 05:31:17;;;;;;;20.95;11.23;;;;;;;1.88;100.00;101224.84;5055302;28;20371;-75
2021/01/11 05:34:03;;;;;;;17.50;9.98;;;;;;;1.96;100.00;101220.72;5056464;28;20021;-75
2021/01/11 05:36:50;;;;;;;10.77;7.78;;;;;;;1.83;100.00;101221.28;5056242;28;20076;-75
2021/01/11 05:39:36;;;;;;;10.35;7.22;;;;;;;1.81;100.00;101220.34;5055192;28;20067;-76
2021/01/11 05:42:22;;;;;;;10.23;6.75;;;;;;;1.75;100.00;101227.94;5056431;28;20025;-76
2021/01/11 05:45:16;;;;;;;10.85;7.35;;;;;;;1.80;100.00;101247.00;5056011;28;20025;-77
2021/01/11 05:48:11;;;;;;;7.15;5.65;;;;;;;1.63;100.00;101250.88;5055751;28;20025;-76
2021/01/11 05:51:01;;;;;;;8.40;5.75;;;;;;;1.57;100.00;101255.84;5057574;28;20032;-77
2021/01/11 05:53:47;;;;;;;9.18;6.93;;;;;;;1.81;100.00;101251.34;5061104;28;20336;-78
2021/01/11 05:56:53;;;;;;;10.48;7.03;;;;;;;1.91;100.00;101247.28;5066623;28;20340;-79
2021/01/11 05:59:39;;;;;;;9.27;6.35;;;;;;;1.63;100.00;101244.81;5057770;28;20020;-78
2021/01/11 06:02:25;;;;;;;10.18;7.00;;;;;;;1.77;100.00;101238.31;5058599;28;20056;-78
2021/01/11 06:05:11;;;;;;;10.10;7.07;;;;;;;1.71;100.00;101212.31;5066409;28;20360;-79
2021/01/11 06:07:59;;;;;;;10.50;6.65;;;;;;;1.80;100.00;101207.41;5064123;28;20029;-78
2021/01/11 06:10:44;;;;;;;10.75;7.55;;;;;;;1.78;100.00;101232.31;5057210;28;20107;-78
2021/01/11 06:13:32;;;;;;;13.40;8.75;;;;;;;1.96;100.00;101241.41;5058162;28;20363;-78
2021/01/11 06:16:20;;;;;;;11.60;7.75;;;;;;;2.25;100.00;101255.06;5059856;28;20168;-78
2021/01/11 06:19:06;;;;;;;11.55;7.20;;;;;;;2.06;100.00;101260.59;5057469;28;20413;-78
2021/01/11 06:21:52;;;;;;;11.00;8.40;;;;;;;1.84;100.00;101238.50;5057483;28;20071;-78
2021/01/11 06:24:37;;;;;;;11.35;8.23;;;;;;;1.88;100.00;101227.41;5058684;28;20116;-78
2021/01/11 06:27:23;;;;;;;10.23;6.78;;;;;;;1.70;100.00;101219.22;5058452;28;20063;-78
2021/01/11 06:30:09;;;;;;;11.20;7.88;;;;;;;1.91;100.00;101232.66;5059047;28;20495;-78
2021/01/11 06:32:56;;;;;;;13.68;8.48;;;;;;;1.72;100.00;101245.94;5059775;28;20032;-78
2021/01/11 06:35:46;;;;;;;11.40;8.13;;;;;;;1.68;100.00;101257.03;5056140;28;20052;-77
2021/01/11 06:38:33;;;;;;;13.00;8.43;;;;;;;1.54;100.00;101265.25;5055460;28;20493;-77
2021/01/11 06:41:21;;;;;;;12.93;8.55;;;;;;;1.66;100.00;101257.81;5062439;28;20025;-77
2021/01/11 06:44:08;;;;;;;11.40;7.75;;;;;;;1.87;100.00;101273.88;5057736;28;20017;-77
2021/01/11 06:46:55;;;;;;;13.82;8.05;;;;;;;1.70;100.00;101275.16;5057214;28;20037;-77
2021/01/11 06:49:43;;;;;;;13.73;8.65;;;;;;;1.80;100.00;101262.50;5058222;28;20029;-77
2021/01/11 06:52:37;;;;;;;11.48;8.13;;;;;;;1.96;100.00;101292.19;5043266;28;20098;-77
2021/01/11 06:55:25;;;;;;;12.52;9.10;;;;;;;1.79;100.00;101298.63;5055541;28;20099;-77
2021/01/11 06:58:22;;;;;;;14.05;9.70;;;;;;;1.88;100.00;101281.66;5056910;28;20040;-77
2021/01/11 07:01:11;;;;;;;14.65;9.77;;;;;;;1.88;100.00;101275.66;5041820;28;20170;-77
2021/01/11 07:03:57;;;;;;;12.70;9.32;;;;;;;1.65;100.00;101287.91;5056463;28;20044;-78
2021/01/11 07:06:45;;;;;;;14.95;10.02;;;;;;;1.52;100.00;101293.59;5059688;28;20024;-78
2021/01/11 07:09:31;;;;;;;14.60;10.15;;;;;;;1.70;100.00;101296.69;5056794;28;20052;-78
2021/01/11 07:12:19;;;;;;;15.93;11.05;;;;;;;1.76;100.00;101291.69;5057153;28;20036;-78
2021/01/11 07:15:07;;;;;;;18.65;12.07;;;;;;;1.81;100.00;101292.66;5058294;28;20051;-78
2021/01/11 07:17:52;;;;;;;16.48;10.82;;;;;;;1.67;100.00;101294.03;5057914;28;20142;-78
2021/01/11 07:20:40;;;;;;;17.30;12.02;;;;;;;1.74;100.00;101295.94;5055718;28;20021;-78
2021/01/11 07:23:26;;;;;;;17.90;11.05;;;;;;;1.67;100.00;101300.88;5055741;28;20434;-78
2021/01/11 07:26:14;;;;;;;17.75;11.27;;;;;;;1.80;100.00;101313.31;5054481;28;20025;-78
2021/01/11 07:29:17;;;;;;;16.38;10.23;;;;;;;1.74;100.00;101315.72;5055555;28;20056;-78
2021/01/11 07:32:03;;;;;;;14.32;10.10;;;;;;;1.62;100.00;101311.09;5055367;28;20108;-79
2021/01/11 07:34:49;;;;;;;13.23;9.75;;;;;;;1.66;100.00;101302.59;5056631;28;20146;-78
2021/01/11 07:37:35;;;;;;;14.55;9.32;;;;;;;1.84;100.00;101316.00;5040334;28;20035;-78
2021/01/11 07:40:22;;;;;;;13.52;8.68;;;;;;;1.71;100.00;101334.59;5040986;28;20028;-78
2021/01/11 07:43:08;;;;;;;12.32;8.75;;;;;;;1.71;100.00;101344.91;5041284;28;20039;-79
2021/01/11 07:46:09;;;;;;;12.88;8.10;;;;;;;1.83;100.00;101368.50;5056382;28;20067;-77
2021/01/11 07:49:10;;;;;;;12.52;8.10;;;;;;;1.84;100.00;101375.41;5041879;28;20029;-77
2021/01/11 07:52:22;;;;;;;12.07;7.50;;;;;;;1.82;100.00;101369.34;5054238;28;20029;-79
2021/01/11 07:55:09;;;;;;;12.35;8.55;;;;;;;1.87;100.00;101357.44;5054259;28;20029;-78
2021/01/11 07:58:04;;;;;;;13.60;8.60;;;;;;;2.18;100.00;101352.25;5043696;28;20025;-78
2021/01/11 08:01:00;;;;;;;12.50;7.93;;;;;;;1.98;100.00;101343.09;5043423;28;20094;-77
2021/01/11 08:03:47;;;;;;;12.48;8.80;;;;;;;1.83;100.00;101339.22;5057155;28;20251;-78
2021/01/11 08:06:44;;;;;;;14.30;9.25;;;;;;;2.04;100.00;101343.25;5057421;28;20097;-77
2021/01/11 08:09:30;;;;;;;15.43;10.50;;;;;;;2.12;100.00;101339.16;5060018;28;20029;-77
2021/01/11 08:12:17;;;;;;;15.85;10.35;;;;;;;2.03;100.00;101344.09;5060631;28;20013;-77
2021/01/11 08:15:08;;;;;;;14.75;9.48;;;;;;;2.06;100.00;101341.59;5060582;28;20039;-78
2021/01/11 08:17:54;;;;;;;14.35;9.80;;;;;;;1.91;100.00;101336.00;5044646;28;20112;-79
2021/01/11 08:20:40;;;;;;;14.57;9.20;;;;;;;1.88;100.00;101322.16;5057717;28;20033;-79
2021/01/11 08:23:26;;;;;;;13.20;9.00;;;;;;;2.01;100.00;101329.38;5045324;28;20363;-79
2021/01/11 08:26:11;;;;;;;14.73;10.00;;;;;;;2.08;100.00;101341.59;5058621;28;20028;-79
2021/01/11 08:28:58;;;;;;;12.73;8.52;;;;;;;1.87;100.00;101359.13;5058215;28;20025;-79
2021/01/11 08:31:45;;;;;;;13.60;9.20;;;;;;;2.32;100.00;101366.41;5057420;28;20059;-78
2021/01/11 08:34:30;;;;;;;13.25;9.13;;;;;;;2.33;100.00;101383.66;5057068;28;20053;-78
2021/01/11 08:37:35;;;;;;;14.68;9.50;;;;;;;2.08;100.00;101364.88;5057129;28;20052;-78
2021/01/11 08:40:34;;;;;;;13.63;9.63;;;;;;;2.09;100.00;101376.97;5057629;28;20098;-77
2021/01/11 08:43:20;;;;;;;14.98;10.07;;;;;;;1.99;100.00;101374.97;5042737;28;20555;-78
2021/01/11 08:46:06;;;;;;;14.55;8.88;;;;;;;2.16;100.00;101389.22;5042943;28;20471;-79
2021/01/11 08:49:05;;;;;;;13.40;9.48;;;;;;;2.27;100.00;101393.84;5056996;28;20377;-79
2021/01/11 08:51:51;;;;;;;12.27;8.40;;;;;;;2.05;100.00;101401.00;5058057;28;20039;-79
2021/01/11 08:54:37;;;;;;;14.00;9.32;;;;;;;2.25;100.00;101403.25;5058184;28;20021;-79
2021/01/11 08:57:27;;;;;;;15.02;10.25;;;;;;;2.27;100.00;101399.00;5043255;28;20033;-78
2021/01/11 09:00:13;;;;;;;12.88;9.50;;;;;;;2.19;100.00;101400.53;5043724;28;20450;-80
2021/01/11 09:02:59;;;;;;;13.80;9.15;;;;;;;2.24;100.00;101393.75;5055929;28;20049;-78
2021/01/11 09:05:45;;;;;;;13.27;9.32;;;;;;;2.13;100.00;101417.56;5042658;28;20056;-79
2021/01/11 09:08:31;;;;;;;16.90;9.38;;;;;;;2.06;100.00;101420.81;5055420;28;20374;-78
2021/01/11 09:11:16;;;;;;;16.42;9.95;;;;;;;2.14;100.00;101429.66;5056468;28;20032;-78
2021/01/11 09:14:16;;;;;;;13.63;9.25;;;;;;;2.06;100.00;101421.72;5056607;28;20045;-78
2021/01/11 09:17:04;;;;;;;13.77;9.38;;;;;;;2.26;100.00;101406.72;5057316;28;20116;-78
2021/01/11 09:19:50;;;;;;;15.35;9.55;;;;;;;2.08;100.00;101412.28;5043352;28;20098;-78
2021/01/11 09:22:41;;;;;;;13.02;8.88;;;;;;;1.94;100.00;101418.78;5056891;28;20047;-78
2021/01/11 09:25:28;;;;;;;13.32;8.63;;;;;;;2.06;100.00;101436.31;5056290;28;20118;-78
2021/01/11 09:28:14;;;;;;;18.02;9.43;;;;;;;2.13;100.00;101428.78;5056463;28;20024;-78
2021/01/11 09:31:00;;;;;;;14.10;9.35;;;;;;;2.24;100.00;101424.78;5055755;28;20025;-77
2021/01/11 09:33:45;;;;;;;14.05;9.00;;;;;;;2.24;100.00;101436.81;5042825;28;20028;-79
2021/01/11 09:36:33;;;;;;;17.85;10.23;;;;;;;2.19;100.00;101435.81;5055717;28;20045;-79
2021/01/11 09:39:19;;;;;;;13.85;8.70;;;;;;;2.28;100.00;101430.88;5041167;28;20108;-78
2021/01/11 09:42:05;;;;;;;19.13;11.32;;;;;;;2.11;100.00;101416.66;5055492;28;20029;-77
2021/01/11 09:44:51;;;;;;;15.73;8.82;;;;;;;1.97;100.00;101408.50;5056389;28;20021;-78
2021/01/11 09:47:37;;;;;;;15.43;10.32;;;;;;;2.19;100.00;101412.56;5055944;28;20033;-79
2021/01/11 09:50:22;;;;;;;12.90;8.60;;;;;;;2.23;100.00;101406.63;5042441;28;20033;-78
2021/01/11 09:53:12;;;;;;;13.85;8.93;;;;;;;2.37;100.00;101411.34;5056559;28;20039;-78
2021/01/11 09:55:57;;;;;;;11.35;8.38;;;;;;;2.20;100.00;101419.47;5055780;28;20424;-78
2021/01/11 09:58:43;;;;;;;15.10;8.88;;;;;;;2.36;100.00;101408.69;5043428;28;20028;-79
2021/01/11 10:01:36;;;;;;;13.73;9.18;;;;;;;2.16;100.00;101426.28;5054786;28;20021;-78
2021/01/11 10:04:22;;;;;;;19.65;13.40;;;;;;;2.49;100.00;101431.50;5055161;28;20029;-78
2021/01/11 10:07:08;;;;;;;13.45;9.00;;;;;;;2.39;100.00;101438.13;5055570;28;20123;-79
2021/01/11 10:09:53;;;;;;;14.15;9.18;;;;;;;2.53;100.00;101446.25;5056278;28;20033;-77
2021/01/11 10:12:39;;;;;;;11.73;8.35;;;;;;;2.54;100.00;101438.53;5056179;28;20025;-78
2021/01/11 10:15:25;;;;;;;12.73;8.77;;;;;;;2.27;100.00;101455.00;5040243;28;20025;-77
2021/01/11 10:18:11;;;;;;;14.00;8.75;;;;;;;2.44;100.00;101457.22;5055117;28;20485;-79
2021/01/11 10:20:57;;;;;;;15.90;10.25;;;;;;;2.38;100.00;101438.97;5055051;28;20017;-77
2021/01/11 10:23:42;;;;;;;13.65;9.38;;;;;;;2.33;100.00;101443.13;5055031;28;20087;-78
2021/01/11 10:26:28;;;;;;;14.80;9.68;;;;;;;2.22;100.00;101438.50;5055296;28;20029;-79
2021/01/11 10:29:18;;;;;;;14.80;10.05;;;;;;;2.23;100.00;101442.81;5054549;28;20096;-79
2021/01/11 10:32:04;;;;;;;15.68;10.95;;;;;;;2.82;100.00;101453.91;5054793;28;20032;-79
2021/01/11 10:34:50;;;;;;;16.38;11.27;;;;;;;2.58;100.00;101457.59;5040917;28;20053;-78
2021/01/11 10:37:35;;;;;;;17.15;11.65;;;;;;;2.68;100.00;101442.34;5055503;28;20036;-78
2021/01/11 10:40:21;;;;;;;19.20;12.07;;;;;;;2.26;100.00;101433.47;5040657;28;20032;-78
2021/01/11 10:43:07;;;;;;;18.67;12.05;;;;;;;2.32;100.00;101419.81;5040097;28;20039;-78
2021/01/11 10:45:53;;;;;;;17.88;11.98;;;;;;;2.16;100.00;101426.28;5041692;28;20021;-78
2021/01/11 10:48:40;;;;;;;19.90;13.07;;;;;;;2.09;100.00;101429.50;5042042;28;20029;-79
2021/01/11 10:51:26;;;;;;;18.15;13.02;;;;;;;2.36;100.00;101422.53;5045036;28;20102;-77
2021/01/11 10:54:12;;;;;;;23.80;15.15;;;;;;;2.50;100.00;101428.94;5064029;28;20442;-78
2021/01/11 10:56:58;;;;;;;22.20;14.45;;;;;;;2.18;100.00;101413.41;5058571;28;20036;-77
2021/01/11 10:59:44;;;;;;;27.05;15.13;;;;;;;2.27;100.00;101406.78;5059933;28;20028;-77
2021/01/11 11:02:29;;;;;;;21.83;14.05;;;;;;;2.42;100.00;101401.13;5059179;28;20029;-77
2021/01/11 11:05:15;;;;;;;34.92;18.33;;;;;;;2.42;100.00;101396.84;5042862;28;20024;-78
2021/01/11 11:08:01;;;;;;;27.38;17.55;;;;;;;2.32;100.00;101393.94;5056324;28;20508;-76
2021/01/11 11:10:47;;;;;;;31.75;19.13;;;;;;;2.68;100.00;101395.78;5044118;28;20044;-78
2021/01/11 11:13:32;;;;;;;35.47;18.60;;;;;;;2.45;100.00;101377.94;5043047;28;20095;-77
2021/01/11 11:16:25;;;;;;;24.20;14.65;;;;;;;2.21;100.00;101383.31;5057038;28;20025;-76
2021/01/11 11:19:13;;;;;;;37.15;20.80;;;;;;;2.28;100.00;101387.84;5057046;28;20374;-76
2021/01/11 11:21:58;;;;;;;41.35;20.88;;;;;;;2.34;100.00;101377.66;5053973;28;20089;-75
2021/01/11 11:24:44;;;;;;;23.08;14.75;;;;;;;2.21;100.00;101396.25;5054165;28;20061;-76
2021/01/11 11:27:30;;;;;;;23.15;15.50;;;;;;;2.28;100.00;101399.88;5053732;28;20037;-76
2021/01/11 11:30:16;;;;;;;28.25;16.73;;;;;;;2.27;100.00;101413.63;5055315;28;20039;-76
2021/01/11 11:33:02;;;;;;;35.63;20.30;;;;;;;2.66;100.00;101409.50;5057844;28;20395;-75
2021/01/11 11:35:48;;;;;;;27.95;17.85;;;;;;;2.84;100.00;101413.41;5058673;28;20053;-76
2021/01/11 11:38:34;;;;;;;26.05;17.48;;;;;;;2.81;100.00;101431.44;5058332;28;20033;-76
2021/01/11 11:41:20;;;;;;;24.65;15.80;;;;;;;2.55;100.00;101429.94;5058246;28;20120;-76
2021/01/11 11:44:07;;;;;;;27.95;17.02;;;;;;;2.55;100.00;101444.56;5044105;28;20123;-79
2021/01/11 11:46:54;;;;;;;24.20;15.55;;;;;;;2.57;100.00;101435.16;5060308;28;20351;-77
2021/01/11 11:49:39;;;;;;;25.45;17.15;;;;;;;2.41;100.00;101438.16;5045999;28;20032;-77
2021/01/11 11:52:25;;;;;;;28.27;17.92;;;;;;;2.45;100.00;101425.34;5061661;28;20107;-76
2021/01/11 11:55:12;;;;;;;22.52;15.05;;;;;;;2.47;100.00;101425.38;5061796;28;20036;-77
2021/01/11 11:57:58;;;;;;;29.65;18.63;;;;;;;2.57;100.00;101429.97;5061078;28;20025;-77
2021/01/11 12:00:44;;;;;;;39.45;24.60;;;;;;;2.76;100.00;101438.22;5047911;28;20036;-77
2021/01/11 12:03:29;;;;;;;24.10;15.68;;;;;;;2.39;100.00;101443.28;5058246;28;20036;-75
2021/01/11 12:06:15;;;;;;;27.42;16.05;;;;;;;2.56;100.00;101438.53;5058851;28;20064;-76
2021/01/11 12:09:01;;;;;;;22.23;14.98;;;;;;;2.40;100.00;101433.81;5057086;28;20031;-76
2021/01/11 12:11:49;;;;;;;27.10;16.90;;;;;;;2.54;100.00;101445.41;5057624;28;20035;-76
2021/01/11 12:14:35;;;;;;;26.30;16.27;;;;;;;2.32;100.00;101448.25;5057366;28;20510;-76
2021/01/11 12:17:20;;;;;;;25.95;16.70;;;;;;;2.46;100.00;101446.91;5058290;28;20036;-75
2021/01/11 12:20:08;;;;;;;30.15;17.98;;;;;;;2.58;100.00;101437.75;5043555;28;20032;-76
2021/01/11 12:22:54;;;;;;;37.10;21.00;;;;;;;2.60;100.00;101458.47;5057140;28;20056;-76
2021/01/11 12:25:40;;;;;;;28.48;17.25;;;;;;;2.44;100.00;101454.63;5057182;28;20094;-77
2021/01/11 12:28:25;;;;;;;36.13;21.17;;;;;;;2.59;100.00;101446.38;5057426;28;20024;-76
2021/01/11 12:31:14;;;;;;;28.73;17.85;;;;;;;2.51;100.00;101416.88;5057558;28;20090;-77
2021/01/11 12:33:59;;;;;;;30.30;17.45;;;;;;;2.27;100.00;101414.53;5058468;28;20032;-78
2021/01/11 12:36:45;;;;;;;30.15;17.13;;;;;;;2.28;100.00;101434.38;5024522;28;20056;-79
2021/01/11 12:39:31;;;;;;;27.88;17.50;;;;;;;2.52;100.00;101429.84;5037587;28;20029;-79
2021/01/11 12:42:17;;;;;;;27.08;16.77;;;;;;;2.55;100.00;101444.56;5037725;28;20455;-78
2021/01/11 12:45:03;;;;;;;26.73;16.85;;;;;;;2.48;100.00;101442.66;5036451;28;20035;-78
2021/01/11 12:47:49;;;;;;;25.45;16.65;;;;;;;2.51;100.00;101466.91;5024248;28;20044;-79